createdAt,value
2023-03-16T00:00:38.368Z,0
2023-03-16T00:01:38.388Z,360
2023-03-16T00:02:38.376Z,16.94
2023-03-16T00:03:38.476Z,4.24
2023-03-16T00:04:38.380Z,317.65
2023-03-16T00:05:38.393Z,317.65
2023-03-16T00:06:38.392Z,327.53
2023-03-16T00:07:38.377Z,340.24
2023-03-16T00:08:38.375Z,323.29
2023-03-16T00:09:38.374Z,310.59
2023-03-16T00:10:38.396Z,303.53
2023-03-16T00:11:38.383Z,288
2023-03-16T00:12:38.388Z,288
2023-03-16T00:13:38.374Z,296.47
2023-03-16T00:14:38.381Z,297.88
2023-03-16T00:15:38.385Z,306.35
2023-03-16T00:16:38.441Z,297.88
2023-03-16T00:17:38.383Z,290.82
2023-03-16T00:18:38.384Z,293.65
2023-03-16T00:19:38.388Z,283.76
2023-03-16T00:20:38.394Z,282.35
2023-03-16T00:21:38.383Z,313.41
2023-03-16T00:22:38.383Z,319.06
2023-03-16T00:23:38.380Z,11.29
2023-03-16T00:24:38.381Z,296.47
2023-03-16T00:25:38.386Z,300.71
2023-03-16T00:26:38.410Z,290.82
2023-03-16T00:27:38.400Z,275.29
2023-03-16T00:28:38.401Z,296.47
2023-03-16T00:29:38.385Z,296.47
2023-03-16T00:30:38.383Z,317.65
2023-03-16T00:31:38.452Z,309.18
2023-03-16T00:32:38.417Z,304.94
2023-03-16T00:33:38.377Z,336
2023-03-16T00:34:38.380Z,300.71
2023-03-16T00:35:38.424Z,328.94
2023-03-16T00:36:38.373Z,327.53
2023-03-16T00:37:38.474Z,316.24
2023-03-16T00:38:38.389Z,350.12
2023-03-16T00:39:38.381Z,348.71
2023-03-16T00:40:38.380Z,324.71
2023-03-16T00:41:38.381Z,12.71
2023-03-16T00:42:38.404Z,330.35
2023-03-16T00:43:38.382Z,310.59
2023-03-16T00:44:38.375Z,360
2023-03-16T00:45:38.387Z,302.12
2023-03-16T00:46:38.421Z,313.41
2023-03-16T00:47:38.372Z,333.18
2023-03-16T00:48:38.377Z,337.41
2023-03-16T00:49:38.398Z,292.24
2023-03-16T00:50:38.383Z,320.47
2023-03-16T00:51:38.381Z,343.06
2023-03-16T00:52:38.384Z,350.12
2023-03-16T00:53:38.376Z,252.71
2023-03-16T00:54:38.372Z,255.53
2023-03-16T00:55:38.369Z,337.41
2023-03-16T00:56:38.384Z,316.24
2023-03-16T00:57:38.380Z,358.59
2023-03-16T00:58:38.421Z,338.82
2023-03-16T00:59:38.396Z,328.94
2023-03-16T01:00:38.388Z,331.76
2023-03-16T01:01:38.457Z,343.06
2023-03-16T01:02:38.372Z,351.53
2023-03-16T01:03:38.476Z,343.06
2023-03-16T01:04:38.384Z,0
2023-03-16T01:05:38.379Z,341.65
2023-03-16T01:06:39.884Z,360
2023-03-16T01:07:38.402Z,21.18
2023-03-16T01:08:38.374Z,341.65
2023-03-16T01:09:38.407Z,1.41
2023-03-16T01:10:38.397Z,360
2023-03-16T01:11:38.387Z,351.53
2023-03-16T01:12:38.393Z,337.41
2023-03-16T01:13:38.386Z,4.24
2023-03-16T01:14:38.431Z,0
2023-03-16T01:15:38.403Z,45.18
2023-03-16T01:16:38.487Z,22.59
2023-03-16T01:17:38.387Z,360
2023-03-16T01:18:38.397Z,36.71
2023-03-16T01:19:38.392Z,360
2023-03-16T01:20:38.385Z,8.47
2023-03-16T01:21:38.375Z,14.12
2023-03-16T01:22:38.383Z,345.88
2023-03-16T01:23:38.398Z,11.29
2023-03-16T01:24:38.393Z,16.94
2023-03-16T01:25:38.384Z,320.47
2023-03-16T01:26:38.382Z,313.41
2023-03-16T01:27:38.384Z,299.29
2023-03-16T01:28:38.384Z,306.35
2023-03-16T01:29:38.426Z,314.82
2023-03-16T01:30:38.447Z,351.53
2023-03-16T01:31:38.391Z,326.12
2023-03-16T01:32:38.446Z,39.53
2023-03-16T01:33:38.395Z,39.53
2023-03-16T01:34:38.381Z,8.47
2023-03-16T01:35:38.402Z,25.41
2023-03-16T01:36:38.391Z,4.24
2023-03-16T01:37:38.393Z,355.76
2023-03-16T01:38:38.383Z,321.88
2023-03-16T01:39:38.387Z,307.76
2023-03-16T01:40:38.387Z,340.24
2023-03-16T01:41:38.390Z,18.35
2023-03-16T01:42:38.389Z,18.35
2023-03-16T01:43:38.394Z,288
2023-03-16T01:44:38.392Z,340.24
2023-03-16T01:45:38.393Z,297.88
2023-03-16T01:46:38.486Z,297.88
2023-03-16T01:47:38.526Z,297.88
2023-03-16T01:48:38.405Z,297.88
2023-03-16T01:49:38.385Z,297.88
2023-03-16T01:50:38.400Z,297.88
2023-03-16T01:51:38.405Z,297.88
2023-03-16T01:52:38.395Z,180.71
2023-03-16T01:53:38.387Z,180.71
2023-03-16T01:54:38.394Z,180.71
2023-03-16T01:55:38.415Z,180.71
2023-03-16T01:56:38.409Z,180.71
2023-03-16T01:57:38.393Z,190.59
2023-03-16T01:58:38.400Z,182.12
2023-03-16T01:59:38.401Z,189.18
2023-03-16T02:00:38.388Z,292.24
2023-03-16T02:01:38.419Z,292.24
2023-03-16T02:02:38.409Z,278.12
2023-03-16T02:03:38.395Z,278.12
2023-03-16T02:04:38.437Z,278.12
2023-03-16T02:05:38.385Z,278.12
2023-03-16T02:06:38.390Z,290.82
2023-03-16T02:07:38.395Z,242.82
2023-03-16T02:08:38.401Z,245.65
2023-03-16T02:09:38.392Z,247.06
2023-03-16T02:10:38.409Z,252.71
2023-03-16T02:11:38.388Z,262.59
2023-03-16T02:12:38.437Z,264
2023-03-16T02:13:38.392Z,234.35
2023-03-16T02:14:38.401Z,269.65
2023-03-16T02:15:38.426Z,278.12
2023-03-16T02:16:38.399Z,8.47
2023-03-16T02:17:38.404Z,321.88
2023-03-16T02:18:38.414Z,11.29
2023-03-16T02:19:38.401Z,9.88
2023-03-16T02:20:38.398Z,9.88
2023-03-16T02:21:38.392Z,9.88
2023-03-16T02:22:38.403Z,292.24
2023-03-16T02:23:38.412Z,276.71
2023-03-16T02:24:38.393Z,276.71
2023-03-16T02:25:38.404Z,280.94
2023-03-16T02:26:38.398Z,280.94
2023-03-16T02:27:38.391Z,280.94
2023-03-16T02:28:38.404Z,280.94
2023-03-16T02:29:38.405Z,280.94
2023-03-16T02:30:38.408Z,280.94
2023-03-16T02:31:38.402Z,280.94
2023-03-16T02:32:38.420Z,280.94
2023-03-16T02:33:38.398Z,280.94
2023-03-16T02:34:38.421Z,280.94
2023-03-16T02:35:38.425Z,280.94
2023-03-16T02:36:38.421Z,280.94
2023-03-16T02:37:38.413Z,280.94
2023-03-16T02:38:38.415Z,280.94
2023-03-16T02:39:38.417Z,280.94
2023-03-16T02:40:38.409Z,280.94
2023-03-16T02:41:38.400Z,280.94
2023-03-16T02:42:38.399Z,280.94
2023-03-16T02:43:38.413Z,280.94
2023-03-16T02:44:38.404Z,280.94
2023-03-16T02:45:38.406Z,280.94
2023-03-16T02:46:38.438Z,280.94
2023-03-16T02:47:38.395Z,280.94
2023-03-16T02:48:38.400Z,280.94
2023-03-16T02:49:38.397Z,280.94
2023-03-16T02:50:38.431Z,280.94
2023-03-16T02:51:38.394Z,280.94
2023-03-16T02:52:38.404Z,280.94
2023-03-16T02:53:38.392Z,280.94
2023-03-16T02:54:38.409Z,280.94
2023-03-16T02:55:38.390Z,280.94
2023-03-16T02:56:38.391Z,280.94
2023-03-16T02:57:38.392Z,280.94
2023-03-16T02:58:38.408Z,280.94
2023-03-16T02:59:38.400Z,280.94
2023-03-16T03:00:38.398Z,280.94
2023-03-16T03:01:38.399Z,280.94
2023-03-16T03:02:38.395Z,280.94
2023-03-16T03:03:38.490Z,280.94
2023-03-16T03:04:38.394Z,280.94
2023-03-16T03:05:38.407Z,280.94
2023-03-16T03:06:38.443Z,280.94
2023-03-16T03:07:38.414Z,280.94
2023-03-16T03:08:38.414Z,280.94
2023-03-16T03:09:38.408Z,280.94
2023-03-16T03:10:38.413Z,280.94
2023-03-16T03:11:38.414Z,280.94
2023-03-16T03:12:38.403Z,280.94
2023-03-16T03:13:38.413Z,280.94
2023-03-16T03:14:38.415Z,280.94
2023-03-16T03:15:38.410Z,280.94
2023-03-16T03:16:38.495Z,280.94
2023-03-16T03:17:38.421Z,280.94
2023-03-16T03:18:38.413Z,280.94
2023-03-16T03:19:38.415Z,280.94
2023-03-16T03:20:38.413Z,280.94
2023-03-16T03:21:38.419Z,280.94
2023-03-16T03:22:38.442Z,280.94
2023-03-16T03:23:38.424Z,280.94
2023-03-16T03:24:38.420Z,280.94
2023-03-16T03:25:38.419Z,280.94
2023-03-16T03:26:38.412Z,280.94
2023-03-16T03:27:38.440Z,280.94
2023-03-16T03:28:38.411Z,280.94
2023-03-16T03:29:38.410Z,25.41
2023-03-16T03:30:38.430Z,21.18
2023-03-16T03:31:38.575Z,29.65
2023-03-16T03:32:38.479Z,8.47
2023-03-16T03:33:38.431Z,341.65
2023-03-16T03:34:38.427Z,341.65
2023-03-16T03:35:38.516Z,341.65
2023-03-16T03:36:38.411Z,341.65
2023-03-16T03:37:38.418Z,341.65
2023-03-16T03:38:38.438Z,59.29
2023-03-16T03:39:38.420Z,59.29
2023-03-16T03:40:38.416Z,59.29
2023-03-16T03:41:38.424Z,59.29
2023-03-16T03:42:38.420Z,59.29
2023-03-16T03:43:38.444Z,59.29
2023-03-16T03:44:38.424Z,59.29
2023-03-16T03:45:38.449Z,59.29
2023-03-16T03:46:38.602Z,59.29
2023-03-16T03:47:38.423Z,39.53
2023-03-16T03:48:38.425Z,72
2023-03-16T03:49:38.428Z,69.18
2023-03-16T03:50:38.425Z,67.76
2023-03-16T03:51:38.423Z,86.12
2023-03-16T03:52:38.412Z,86.12
2023-03-16T03:53:38.442Z,86.12
2023-03-16T03:54:38.460Z,86.12
2023-03-16T03:55:38.425Z,86.12
2023-03-16T03:56:38.427Z,86.12
2023-03-16T03:57:38.429Z,86.12
2023-03-16T03:58:38.417Z,86.12
2023-03-16T03:59:38.415Z,86.12
2023-03-16T04:00:38.419Z,86.12
2023-03-16T04:01:38.425Z,86.12
2023-03-16T04:02:38.518Z,86.12
2023-03-16T04:03:38.414Z,86.12
2023-03-16T04:04:38.413Z,86.12
2023-03-16T04:05:38.420Z,86.12
2023-03-16T04:06:38.431Z,86.12
2023-03-16T04:07:38.416Z,86.12
2023-03-16T04:08:38.422Z,86.12
2023-03-16T04:09:38.423Z,86.12
2023-03-16T04:10:38.457Z,86.12
2023-03-16T04:11:38.416Z,86.12
2023-03-16T04:12:38.417Z,86.12
2023-03-16T04:13:38.417Z,86.12
2023-03-16T04:14:38.414Z,86.12
2023-03-16T04:15:38.480Z,86.12
2023-03-16T04:16:38.467Z,86.12
2023-03-16T04:17:38.414Z,86.12
2023-03-16T04:18:38.697Z,86.12
2023-03-16T04:19:38.426Z,86.12
2023-03-16T04:20:38.419Z,86.12
2023-03-16T04:21:38.424Z,86.12
2023-03-16T04:22:38.426Z,86.12
2023-03-16T04:23:38.443Z,86.12
2023-03-16T04:24:38.430Z,86.12
2023-03-16T04:25:38.440Z,86.12
2023-03-16T04:26:38.442Z,86.12
2023-03-16T04:27:38.430Z,86.12
2023-03-16T04:28:38.460Z,86.12
2023-03-16T04:29:38.423Z,86.12
2023-03-16T04:30:38.501Z,86.12
2023-03-16T04:31:38.425Z,86.12
2023-03-16T04:32:38.548Z,86.12
2023-03-16T04:33:38.425Z,86.12
2023-03-16T04:34:38.432Z,86.12
2023-03-16T04:35:38.480Z,86.12
2023-03-16T04:36:38.435Z,86.12
2023-03-16T04:37:38.423Z,86.12
2023-03-16T04:38:38.422Z,86.12
2023-03-16T04:39:38.441Z,86.12
2023-03-16T04:40:38.432Z,86.12
2023-03-16T04:41:38.435Z,86.12
2023-03-16T04:42:38.448Z,86.12
2023-03-16T04:43:38.442Z,86.12
2023-03-16T04:44:38.435Z,86.12
2023-03-16T04:45:38.430Z,86.12
2023-03-16T04:46:38.609Z,86.12
2023-03-16T04:47:38.424Z,86.12
2023-03-16T04:48:38.432Z,86.12
2023-03-16T04:49:38.454Z,86.12
2023-03-16T04:50:38.432Z,86.12
2023-03-16T04:51:38.428Z,86.12
2023-03-16T04:52:38.430Z,86.12
2023-03-16T04:53:38.441Z,86.12
2023-03-16T04:54:38.468Z,86.12
2023-03-16T04:55:38.443Z,86.12
2023-03-16T04:56:38.435Z,86.12
2023-03-16T04:57:38.452Z,86.12
2023-03-16T04:58:38.455Z,86.12
2023-03-16T04:59:38.470Z,86.12
2023-03-16T05:00:38.440Z,86.12
2023-03-16T05:01:38.524Z,86.12
2023-03-16T05:02:38.449Z,86.12
2023-03-16T05:03:38.458Z,86.12
2023-03-16T05:04:38.443Z,86.12
2023-03-16T05:05:38.495Z,86.12
2023-03-16T05:06:38.449Z,86.12
2023-03-16T05:07:38.441Z,86.12
2023-03-16T05:08:38.464Z,86.12
2023-03-16T05:09:38.429Z,86.12
2023-03-16T05:10:38.445Z,86.12
2023-03-16T05:11:38.436Z,86.12
2023-03-16T05:12:38.437Z,86.12
2023-03-16T05:13:38.453Z,86.12
2023-03-16T05:14:38.480Z,86.12
2023-03-16T05:15:38.472Z,86.12
2023-03-16T05:16:38.429Z,86.12
2023-03-16T05:17:38.429Z,86.12
2023-03-16T05:18:38.430Z,86.12
2023-03-16T05:19:38.455Z,86.12
2023-03-16T05:20:38.426Z,86.12
2023-03-16T05:21:38.449Z,86.12
2023-03-16T05:22:38.441Z,86.12
2023-03-16T05:23:38.458Z,86.12
2023-03-16T05:24:38.460Z,86.12
2023-03-16T05:25:38.454Z,86.12
2023-03-16T05:26:38.445Z,86.12
2023-03-16T05:27:38.437Z,86.12
2023-03-16T05:28:38.433Z,86.12
2023-03-16T05:29:38.442Z,86.12
2023-03-16T05:30:38.463Z,86.12
2023-03-16T05:31:38.557Z,86.12
2023-03-16T05:32:38.477Z,86.12
2023-03-16T05:33:38.440Z,86.12
2023-03-16T05:34:38.441Z,86.12
2023-03-16T05:35:38.570Z,86.12
2023-03-16T05:36:38.437Z,86.12
2023-03-16T05:37:38.445Z,86.12
2023-03-16T05:38:38.437Z,86.12
2023-03-16T05:39:38.443Z,86.12
2023-03-16T05:40:38.436Z,86.12
2023-03-16T05:41:38.446Z,86.12
2023-03-16T05:42:38.466Z,86.12
2023-03-16T05:43:38.458Z,86.12
2023-03-16T05:44:38.441Z,86.12
2023-03-16T05:45:38.433Z,86.12
2023-03-16T05:46:38.507Z,86.12
2023-03-16T05:47:38.444Z,86.12
2023-03-16T05:48:38.447Z,86.12
2023-03-16T05:49:38.443Z,86.12
2023-03-16T05:50:38.443Z,86.12
2023-03-16T05:51:38.442Z,86.12
2023-03-16T05:52:38.449Z,86.12
2023-03-16T05:53:38.451Z,86.12
2023-03-16T05:54:38.453Z,86.12
2023-03-16T05:55:38.443Z,86.12
2023-03-16T05:56:38.454Z,86.12
2023-03-16T05:57:38.448Z,86.12
2023-03-16T05:58:38.441Z,86.12
2023-03-16T05:59:38.452Z,86.12
2023-03-16T06:00:38.437Z,86.12
2023-03-16T06:01:38.436Z,86.12
2023-03-16T06:02:38.506Z,86.12
2023-03-16T06:03:38.508Z,86.12
2023-03-16T06:04:38.436Z,86.12
2023-03-16T06:05:38.442Z,86.12
2023-03-16T06:06:38.442Z,86.12
2023-03-16T06:07:38.434Z,86.12
2023-03-16T06:08:38.439Z,86.12
2023-03-16T06:09:38.441Z,86.12
2023-03-16T06:10:38.433Z,86.12
2023-03-16T06:11:38.446Z,86.12
2023-03-16T06:12:38.454Z,86.12
2023-03-16T06:13:38.443Z,86.12
2023-03-16T06:14:38.458Z,86.12
2023-03-16T06:15:38.439Z,86.12
2023-03-16T06:16:38.521Z,86.12
2023-03-16T06:17:38.448Z,86.12
2023-03-16T06:18:38.466Z,86.12
2023-03-16T06:19:38.452Z,86.12
2023-03-16T06:20:38.437Z,86.12
2023-03-16T06:21:38.448Z,86.12
2023-03-16T06:22:38.442Z,86.12
2023-03-16T06:23:38.452Z,86.12
2023-03-16T06:24:38.444Z,86.12
2023-03-16T06:25:40.646Z,86.12
2023-03-16T06:26:38.437Z,86.12
2023-03-16T06:27:38.460Z,86.12
2023-03-16T06:28:38.448Z,86.12
2023-03-16T06:29:38.449Z,86.12
2023-03-16T06:30:38.461Z,86.12
2023-03-16T06:31:38.502Z,86.12
2023-03-16T06:32:38.443Z,86.12
2023-03-16T06:33:38.445Z,86.12
2023-03-16T06:34:38.574Z,86.12
2023-03-16T06:35:38.532Z,86.12
2023-03-16T06:36:38.455Z,86.12
2023-03-16T06:37:38.445Z,86.12
2023-03-16T06:38:38.447Z,86.12
2023-03-16T06:39:38.447Z,86.12
2023-03-16T06:40:38.464Z,86.12
2023-03-16T06:41:38.457Z,86.12
2023-03-16T06:42:38.468Z,86.12
2023-03-16T06:43:38.462Z,86.12
2023-03-16T06:44:38.465Z,86.12
2023-03-16T06:45:38.513Z,86.12
2023-03-16T06:46:38.460Z,86.12
2023-03-16T06:47:38.455Z,86.12
2023-03-16T06:48:38.464Z,86.12
2023-03-16T06:49:38.462Z,86.12
2023-03-16T06:50:38.476Z,86.12
2023-03-16T06:51:38.461Z,86.12
2023-03-16T06:52:38.449Z,86.12
2023-03-16T06:53:38.457Z,86.12
2023-03-16T06:54:38.464Z,86.12
2023-03-16T06:55:38.454Z,86.12
2023-03-16T06:56:38.470Z,86.12
2023-03-16T06:57:38.456Z,86.12
2023-03-16T06:58:38.490Z,86.12
2023-03-16T06:59:38.464Z,86.12
2023-03-16T07:00:38.479Z,86.12
2023-03-16T07:01:38.466Z,86.12
2023-03-16T07:02:38.456Z,86.12
2023-03-16T07:03:38.463Z,86.12
2023-03-16T07:04:38.495Z,86.12
2023-03-16T07:05:38.462Z,86.12
2023-03-16T07:06:38.483Z,86.12
2023-03-16T07:07:38.477Z,86.12
2023-03-16T07:08:38.478Z,86.12
2023-03-16T07:09:41.127Z,86.12
2023-03-16T07:10:38.486Z,86.12
2023-03-16T07:11:38.461Z,86.12
2023-03-16T07:12:38.467Z,86.12
2023-03-16T07:13:38.475Z,86.12
2023-03-16T07:14:38.468Z,86.12
2023-03-16T07:15:38.468Z,86.12
2023-03-16T07:16:38.509Z,86.12
2023-03-16T07:17:38.462Z,86.12
2023-03-16T07:18:38.469Z,86.12
2023-03-16T07:19:38.479Z,86.12
2023-03-16T07:20:38.473Z,86.12
2023-03-16T07:21:38.469Z,86.12
2023-03-16T07:22:38.500Z,86.12
2023-03-16T07:23:38.490Z,86.12
2023-03-16T07:24:38.476Z,86.12
2023-03-16T07:25:38.472Z,86.12
2023-03-16T07:26:38.464Z,12.71
2023-03-16T07:27:38.472Z,12.71
2023-03-16T07:28:38.503Z,12.71
2023-03-16T07:29:38.472Z,12.71
2023-03-16T07:30:38.497Z,12.71
2023-03-16T07:31:38.505Z,12.71
2023-03-16T07:32:38.556Z,12.71
2023-03-16T07:33:38.487Z,12.71
2023-03-16T07:34:38.470Z,12.71
2023-03-16T07:35:38.502Z,12.71
2023-03-16T07:36:38.473Z,12.71
2023-03-16T07:37:38.473Z,12.71
2023-03-16T07:38:38.508Z,12.71
2023-03-16T07:39:38.508Z,12.71
2023-03-16T07:40:38.468Z,12.71
2023-03-16T07:41:38.489Z,12.71
2023-03-16T07:42:38.476Z,12.71
2023-03-16T07:43:38.499Z,12.71
2023-03-16T07:44:38.473Z,12.71
2023-03-16T07:45:38.538Z,12.71
2023-03-16T07:46:38.499Z,12.71
2023-03-16T07:47:38.497Z,12.71
2023-03-16T07:48:38.477Z,12.71
2023-03-16T07:49:38.478Z,12.71
2023-03-16T07:50:38.485Z,12.71
2023-03-16T07:51:38.478Z,12.71
2023-03-16T07:52:38.489Z,12.71
2023-03-16T07:53:38.503Z,12.71
2023-03-16T07:54:38.502Z,12.71
2023-03-16T07:55:38.482Z,12.71
2023-03-16T07:56:48.134Z,12.71
2023-03-16T07:57:38.477Z,12.71
2023-03-16T07:58:38.481Z,12.71
2023-03-16T07:59:38.484Z,12.71
2023-03-16T08:00:38.478Z,12.71
2023-03-16T08:01:38.489Z,12.71
2023-03-16T08:02:38.628Z,12.71
2023-03-16T08:03:38.674Z,12.71
2023-03-16T08:04:38.475Z,12.71
2023-03-16T08:05:38.496Z,12.71
2023-03-16T08:06:38.487Z,12.71
2023-03-16T08:07:38.491Z,12.71
2023-03-16T08:08:38.481Z,12.71
2023-03-16T08:09:38.484Z,12.71
2023-03-16T08:10:38.508Z,12.71
2023-03-16T08:11:38.486Z,12.71
2023-03-16T08:12:38.559Z,12.71
2023-03-16T08:13:38.489Z,12.71
2023-03-16T08:14:38.500Z,12.71
2023-03-16T08:15:38.526Z,12.71
2023-03-16T08:16:38.493Z,12.71
2023-03-16T08:17:38.518Z,12.71
2023-03-16T08:18:38.495Z,12.71
2023-03-16T08:19:38.502Z,12.71
2023-03-16T08:20:38.499Z,50.82
2023-03-16T08:21:48.792Z,50.82
2023-03-16T08:22:38.494Z,50.82
2023-03-16T08:23:38.487Z,50.82
2023-03-16T08:24:38.499Z,50.82
2023-03-16T08:25:38.506Z,50.82
2023-03-16T08:26:39.598Z,50.82
2023-03-16T08:27:38.503Z,50.82
2023-03-16T08:28:38.539Z,50.82
2023-03-16T08:29:38.502Z,50.82
2023-03-16T08:30:38.509Z,50.82
2023-03-16T08:31:38.587Z,50.82
2023-03-16T08:32:38.547Z,50.82
2023-03-16T08:33:38.502Z,50.82
2023-03-16T08:34:38.506Z,261.18
2023-03-16T08:35:38.545Z,276.71
2023-03-16T08:36:38.504Z,180.71
2023-03-16T08:37:38.511Z,245.65
2023-03-16T08:38:38.519Z,238.59
2023-03-16T08:39:38.498Z,197.65
2023-03-16T08:40:38.507Z,197.65
2023-03-16T08:41:38.502Z,197.65
2023-03-16T08:42:38.547Z,197.65
2023-03-16T08:43:38.499Z,197.65
2023-03-16T08:44:38.504Z,197.65
2023-03-16T08:45:38.493Z,197.65
2023-03-16T08:46:38.570Z,197.65
2023-03-16T08:47:38.502Z,197.65
2023-03-16T08:48:38.525Z,197.65
2023-03-16T08:49:38.503Z,197.65
2023-03-16T08:50:38.504Z,197.65
2023-03-16T08:51:38.503Z,197.65
2023-03-16T08:52:38.496Z,197.65
2023-03-16T08:53:38.499Z,197.65
2023-03-16T08:54:38.507Z,197.65
2023-03-16T08:55:38.495Z,197.65
2023-03-16T08:56:38.517Z,307.76
2023-03-16T08:57:38.506Z,307.76
2023-03-16T08:58:38.517Z,307.76
2023-03-16T08:59:38.512Z,307.76
2023-03-16T09:00:38.502Z,307.76
2023-03-16T09:01:38.561Z,307.76
2023-03-16T09:02:38.625Z,307.76
2023-03-16T09:03:38.507Z,303.53
2023-03-16T09:04:38.532Z,313.41
2023-03-16T09:05:38.512Z,300.71
2023-03-16T09:06:38.509Z,290.82
2023-03-16T09:07:38.518Z,312
2023-03-16T09:08:38.506Z,312
2023-03-16T09:09:38.509Z,312
2023-03-16T09:10:38.517Z,314.82
2023-03-16T09:11:38.502Z,314.82
2023-03-16T09:12:38.509Z,314.82
2023-03-16T09:13:38.516Z,314.82
2023-03-16T09:14:38.761Z,314.82
2023-03-16T09:15:38.496Z,314.82
2023-03-16T09:16:38.587Z,314.82
2023-03-16T09:17:38.493Z,314.82
2023-03-16T09:18:38.502Z,314.82
2023-03-16T09:19:50.383Z,314.82
2023-03-16T09:20:38.693Z,314.82
2023-03-16T09:21:38.501Z,314.82
2023-03-16T09:22:38.502Z,314.82
2023-03-16T09:23:38.525Z,314.82
2023-03-16T09:24:38.516Z,314.82
2023-03-16T09:25:38.498Z,211.76
2023-03-16T09:26:38.511Z,216
2023-03-16T09:27:38.514Z,216
2023-03-16T09:28:38.502Z,216
2023-03-16T09:29:38.514Z,216
2023-03-16T09:30:38.535Z,216
2023-03-16T09:31:38.640Z,333.18
2023-03-16T09:32:38.514Z,288
2023-03-16T09:33:38.496Z,252.71
2023-03-16T09:34:38.507Z,259.76
2023-03-16T09:35:38.497Z,259.76
2023-03-16T09:36:38.498Z,259.76
2023-03-16T09:37:44.381Z,259.76
2023-03-16T09:38:38.515Z,259.76
2023-03-16T09:39:38.505Z,259.76
2023-03-16T09:40:38.500Z,259.76
2023-03-16T09:41:38.502Z,259.76
2023-03-16T09:42:38.520Z,259.76
2023-03-16T09:43:38.504Z,259.76
2023-03-16T09:44:38.512Z,259.76
2023-03-16T09:45:38.578Z,259.76
2023-03-16T09:46:38.541Z,259.76
2023-03-16T09:47:38.545Z,259.76
2023-03-16T09:48:38.510Z,259.76
2023-03-16T09:49:38.504Z,259.76
2023-03-16T09:50:48.004Z,259.76
2023-03-16T09:51:38.517Z,259.76
2023-03-16T09:52:38.508Z,259.76
2023-03-16T09:53:38.538Z,259.76
2023-03-16T09:54:38.522Z,259.76
2023-03-16T09:55:38.523Z,259.76
2023-03-16T09:56:38.538Z,259.76
2023-03-16T09:57:38.517Z,259.76
2023-03-16T09:58:38.522Z,259.76
2023-03-16T09:59:38.529Z,259.76
2023-03-16T10:00:38.523Z,259.76
2023-03-16T10:01:38.541Z,259.76
2023-03-16T10:02:38.540Z,259.76
2023-03-16T10:03:38.562Z,259.76
2023-03-16T10:04:38.529Z,259.76
2023-03-16T10:05:38.530Z,190.59
2023-03-16T10:06:38.536Z,176.47
2023-03-16T10:07:38.527Z,192
2023-03-16T10:08:38.534Z,207.53
2023-03-16T10:09:38.551Z,180.71
2023-03-16T10:10:38.544Z,184.94
2023-03-16T10:11:38.550Z,323.29
2023-03-16T10:12:38.548Z,323.29
2023-03-16T10:13:38.558Z,214.59
2023-03-16T10:14:38.584Z,201.88
2023-03-16T10:15:38.550Z,162.35
2023-03-16T10:16:38.651Z,193.41
2023-03-16T10:17:38.557Z,189.18
2023-03-16T10:18:38.572Z,189.18
2023-03-16T10:19:38.546Z,175.06
2023-03-16T10:20:38.553Z,163.76
2023-03-16T10:21:38.535Z,141.18
2023-03-16T10:22:38.552Z,141.18
2023-03-16T10:23:40.292Z,207.53
2023-03-16T10:24:38.550Z,197.65
2023-03-16T10:25:38.559Z,197.65
2023-03-16T10:26:38.543Z,187.76
2023-03-16T10:27:38.602Z,207.53
2023-03-16T10:28:38.548Z,168
2023-03-16T10:29:38.556Z,134.12
2023-03-16T10:30:38.560Z,151.06
2023-03-16T10:31:38.621Z,151.06
2023-03-16T10:32:38.618Z,151.06
2023-03-16T10:33:38.558Z,151.06
2023-03-16T10:34:38.588Z,309.18
2023-03-16T10:35:38.557Z,214.59
2023-03-16T10:36:38.619Z,214.59
2023-03-16T10:37:38.553Z,214.59
2023-03-16T10:38:38.566Z,214.59
2023-03-16T10:39:38.562Z,214.59
2023-03-16T10:40:38.564Z,286.59
2023-03-16T10:41:38.617Z,276.71
2023-03-16T10:42:38.586Z,271.06
2023-03-16T10:43:38.590Z,266.82
2023-03-16T10:44:38.572Z,297.88
2023-03-16T10:45:38.593Z,334.59
2023-03-16T10:46:38.664Z,265.41
2023-03-16T10:47:38.561Z,314.82
2023-03-16T10:48:38.572Z,309.18
2023-03-16T10:49:38.560Z,293.65
2023-03-16T10:50:38.590Z,293.65
2023-03-16T10:51:38.576Z,323.29
2023-03-16T10:52:38.568Z,312
2023-03-16T10:53:38.573Z,168
2023-03-16T10:54:38.572Z,132.71
2023-03-16T10:55:38.587Z,132.71
2023-03-16T10:56:38.588Z,132.71
2023-03-16T10:57:38.573Z,132.71
2023-03-16T10:58:38.573Z,149.65
2023-03-16T10:59:38.572Z,175.06
2023-03-16T11:00:38.581Z,112.94
2023-03-16T11:01:38.622Z,124.24
2023-03-16T11:02:38.595Z,124.24
2023-03-16T11:03:38.574Z,255.53
2023-03-16T11:04:38.590Z,255.53
2023-03-16T11:05:38.578Z,273.88
2023-03-16T11:06:38.597Z,292.24
2023-03-16T11:07:38.568Z,251.29
2023-03-16T11:08:38.589Z,286.59
2023-03-16T11:09:38.578Z,300.71
2023-03-16T11:10:46.210Z,282.35
2023-03-16T11:11:38.573Z,15.53
2023-03-16T11:12:38.580Z,348.71
2023-03-16T11:13:38.611Z,348.71
2023-03-16T11:14:38.579Z,348.71
2023-03-16T11:15:38.584Z,31.06
2023-03-16T11:16:38.629Z,28.24
2023-03-16T11:17:38.591Z,49.41
2023-03-16T11:18:38.605Z,28.24
2023-03-16T11:19:38.589Z,24
2023-03-16T11:20:38.602Z,328.94
2023-03-16T11:21:38.616Z,320.47
2023-03-16T11:22:38.614Z,296.47
2023-03-16T11:23:38.619Z,290.82
2023-03-16T11:24:38.586Z,323.29
2023-03-16T11:25:38.584Z,266.82
2023-03-16T11:26:38.582Z,265.41
2023-03-16T11:27:38.602Z,249.88
2023-03-16T11:28:38.620Z,242.82
2023-03-16T11:29:38.604Z,302.12
2023-03-16T11:30:38.612Z,241.41
2023-03-16T11:31:38.593Z,218.82
2023-03-16T11:32:38.701Z,173.65
2023-03-16T11:33:38.597Z,183.53
2023-03-16T11:34:38.589Z,217.41
2023-03-16T11:35:42.042Z,207.53
2023-03-16T11:36:38.601Z,223.06
2023-03-16T11:37:38.614Z,152.47
2023-03-16T11:38:38.617Z,151.06
2023-03-16T11:39:38.587Z,107.29
2023-03-16T11:40:38.642Z,177.88
2023-03-16T11:41:38.598Z,165.18
2023-03-16T11:42:38.599Z,172.24
2023-03-16T11:43:38.595Z,170.82
2023-03-16T11:44:38.617Z,146.82
2023-03-16T11:45:38.601Z,146.82
2023-03-16T11:46:38.658Z,170.82
2023-03-16T11:47:38.599Z,176.47
2023-03-16T11:48:38.606Z,184.94
2023-03-16T11:49:38.600Z,187.76
2023-03-16T11:50:38.599Z,170.82
2023-03-16T11:51:40.419Z,184.94
2023-03-16T11:52:38.600Z,175.06
2023-03-16T11:53:38.588Z,196.24
2023-03-16T11:54:38.636Z,286.59
2023-03-16T11:55:38.600Z,303.53
2023-03-16T11:56:38.590Z,295.06
2023-03-16T11:57:38.595Z,286.59
2023-03-16T11:58:38.604Z,286.59
2023-03-16T11:59:38.734Z,304.94
2023-03-16T12:00:38.598Z,310.59
2023-03-16T12:01:41.030Z,279.53
2023-03-16T12:02:38.626Z,266.82
2023-03-16T12:03:38.663Z,297.88
2023-03-16T12:04:38.598Z,266.82
2023-03-16T12:05:38.601Z,280.94
2023-03-16T12:06:38.628Z,232.94
2023-03-16T12:07:38.589Z,278.12
2023-03-16T12:08:38.593Z,283.76
2023-03-16T12:09:38.597Z,217.41
2023-03-16T12:10:38.612Z,268.24
2023-03-16T12:11:40.905Z,268.24
2023-03-16T12:12:38.599Z,210.35
2023-03-16T12:13:38.593Z,283.76
2023-03-16T12:14:38.617Z,269.65
2023-03-16T12:15:38.605Z,269.65
2023-03-16T12:16:48.541Z,269.65
2023-03-16T12:17:38.607Z,115.76
2023-03-16T12:18:38.602Z,165.18
2023-03-16T12:19:38.588Z,200.47
2023-03-16T12:20:38.606Z,166.59
2023-03-16T12:21:38.605Z,196.24
2023-03-16T12:22:38.633Z,204.71
2023-03-16T12:23:38.594Z,207.53
2023-03-16T12:24:38.607Z,187.76
2023-03-16T12:25:38.597Z,173.65
2023-03-16T12:26:38.663Z,173.65
2023-03-16T12:27:38.607Z,173.65
2023-03-16T12:28:38.592Z,173.65
2023-03-16T12:29:38.598Z,196.24
2023-03-16T12:30:38.626Z,179.29
2023-03-16T12:31:38.673Z,192
2023-03-16T12:32:38.646Z,194.82
2023-03-16T12:33:38.601Z,186.35
2023-03-16T12:34:38.610Z,162.35
2023-03-16T12:35:38.630Z,162.35
2023-03-16T12:36:38.602Z,248.47
2023-03-16T12:37:38.602Z,275.29
2023-03-16T12:38:38.601Z,275.29
2023-03-16T12:39:38.602Z,275.29
2023-03-16T12:40:38.608Z,268.24
2023-03-16T12:41:38.607Z,268.24
2023-03-16T12:42:38.631Z,258.35